Bookmark and Share
Track history (hours):
 

Caribbean Sea

Last reported at 2012-Oct-20 06:33 UTC. Time now 2014-Apr-16 10:43 UTC.
Position N 25°43' W 079°55'.
Warning: this ship's position is years out of date!

Length 183 m; draft 7.1 m.

Type: Ship (hazmat cat A). MMSI: 244523000.

NotesDate/timePositionNaut miles runAvg speedWind from/ knotsBaromVisibWave heightAir tempDewpointWater temp
2012-Oct-20 06:33N 25°43' W 079°55'1515.5
2012-Oct-20 05:33N 25°58' W 080°01'9 9.4
2012-Oct-20 04:37N 26°05' W 080°07'1 0.8
2012-Oct-20 03:31N 26°04' W 080°07'0 0.0
2012-Oct-20 02:28N 26°04' W 080°07'0 0.0
2012-Oct-20 01:32N 26°04' W 080°07'0 0.0
2012-Oct-19 23:29N 26°04' W 080°07'0 0.0
2012-Oct-19 22:25N 26°04' W 080°07'0 0.0
2012-Oct-19 21:31N 26°04' W 080°07'0 0.0
2012-Oct-19 20:33N 26°04' W 080°07'0 0.0
2012-Oct-19 19:31N 26°04' W 080°07'0 0.0
2012-Oct-19 17:25N 26°04' W 080°07'0 0.0
2012-Oct-19 16:30N 26°04' W 080°07'0 0.0
2012-Oct-19 15:33N 26°04' W 080°07'0 0.0
2012-Oct-19 14:31N 26°04' W 080°07'0 0.0
2012-Oct-19 13:23N 26°04' W 080°07'0 0.0
2012-Oct-19 12:26N 26°04' W 080°07'0 0.0
2012-Oct-19 11:33N 26°04' W 080°07'0 0.0
2012-Oct-19 10:37N 26°04' W 080°07'1 0.7
2012-Oct-19 09:34N 26°05' W 080°07'6 6.3
2012-Oct-19 08:34N 26°05' W 079°60'1010.4
2012-Oct-19 07:33N 26°00' W 079°49'  
2012-Oct-13 21:33N 25°40' W 079°54'1616.0
2012-Oct-13 20:33N 25°54' W 080°01'1312.6
2012-Oct-13 19:33N 26°05' W 080°07'1 1.2
2012-Oct-13 18:31N 26°04' W 080°07'0 0.0
2012-Oct-13 17:31N 26°04' W 080°07'0 0.0
2012-Oct-13 16:26N 26°04' W 080°07'0 0.0
2012-Oct-13 15:33N 26°04' W 080°07'0 0.0
2012-Oct-13 14:33N 26°04' W 080°07'0 0.0
2012-Oct-13 13:33N 26°04' W 080°07'0 0.0
2012-Oct-13 12:29N 26°04' W 080°07'0 0.0
2012-Oct-13 11:34N 26°04' W 080°07'0 0.0
2012-Oct-13 09:31N 26°04' W 080°07'0 0.0
2012-Oct-13 08:31N 26°04' W 080°07'0 0.0
2012-Oct-13 07:26N 26°04' W 080°07'0 0.0
2012-Oct-13 06:32N 26°04' W 080°07'0 0.0
2012-Oct-13 05:32N 26°04' W 080°07'0 0.0
2012-Oct-13 03:33N 26°04' W 080°07'0 0.0
2012-Oct-13 02:33N 26°04' W 080°07'0 0.0
2012-Oct-13 01:29N 26°04' W 080°07'0 0.0
2012-Oct-13 00:29N 26°04' W 080°07'0 0.0
2012-Oct-12 23:26N 26°04' W 080°07'0 0.0
2012-Oct-12 22:26N 26°04' W 080°07'0 0.0
2012-Oct-12 21:32N 26°04' W 080°07'0 0.0
2012-Oct-12 20:34N 26°04' W 080°07'0 0.0
2012-Oct-12 19:24N 26°04' W 080°07'0 0.0
2012-Oct-12 18:33N 26°04' W 080°07'0 0.0
2012-Oct-12 17:33N 26°04' W 080°07'0 0.0
2012-Oct-12 16:27N 26°04' W 080°07'0 0.0
2012-Oct-12 15:34N 26°04' W 080°07'0 0.0
2012-Oct-12 14:30N 26°04' W 080°07'0 0.0
2012-Oct-12 13:33N 26°04' W 080°07'0 0.0
2012-Oct-12 12:33N 26°04' W 080°07'0 0.0
2012-Oct-12 11:27N 26°04' W 080°07'0 0.0
2012-Oct-12 10:37N 26°04' W 080°07'2 1.4
2012-Oct-12 09:34N 26°06' W 080°07'7 6.6
2012-Oct-12 08:33N 26°04' W 079°59'7 6.9
2012-Oct-12 07:33N 25°59' W 079°54'3 3.4
2012-Oct-12 06:33N 25°56' W 079°53'1 1.3
2012-Oct-12 05:33N 25°55' W 079°53'1 1.3
2012-Oct-12 04:37N 25°53' W 079°53'1 1.3
2012-Oct-12 03:33N 25°52' W 079°53'1 1.1
2012-Oct-12 02:33N 25°51' W 079°53'1 1.1
2012-Oct-12 01:33N 25°50' W 079°53'1 1.1
2012-Oct-12 00:33N 25°49' W 079°53'1 1.2
2012-Oct-11 23:33N 25°47' W 079°53'1 1.4
2012-Oct-11 22:34N 25°46' W 079°53'  

Dump ship's entire track history

sailing weather and tide predictions

Caribbean Sea — PHNU — position and weather